createdAt,value
2018-03-21T00:01:51.813Z,3.87
2018-03-21T00:04:20.910Z,3.80
2018-03-21T00:06:49.988Z,3.75
2018-03-21T00:09:18.310Z,3.72
2018-03-21T00:11:47.980Z,3.68
2018-03-21T00:14:16.324Z,3.61
2018-03-21T00:16:44.668Z,3.56
2018-03-21T00:19:13.808Z,3.54
2018-03-21T00:21:42.112Z,3.47
2018-03-21T00:24:10.413Z,3.44
2018-03-21T00:26:39.532Z,3.42
2018-03-21T00:29:08.775Z,3.41
2018-03-21T00:31:37.081Z,3.35
2018-03-21T00:34:05.408Z,3.36
2018-03-21T00:36:33.723Z,3.37
2018-03-21T00:39:02.090Z,3.38
2018-03-21T00:41:30.442Z,3.40
2018-03-21T00:43:58.759Z,3.38
2018-03-21T00:46:27.114Z,3.36
2018-03-21T00:48:56.460Z,3.38
2018-03-21T00:51:24.792Z,3.40
2018-03-21T00:53:53.144Z,3.41
2018-03-21T00:56:21.508Z,3.40
2018-03-21T00:58:49.821Z,3.35
2018-03-21T01:01:18.319Z,3.35
2018-03-21T01:03:46.632Z,3.34
2018-03-21T01:06:15.704Z,3.32
2018-03-21T01:08:44.037Z,3.30
2018-03-21T01:11:12.365Z,3.31
2018-03-21T01:13:40.723Z,3.30
2018-03-21T01:16:09.051Z,3.30
2018-03-21T01:18:38.134Z,3.32
2018-03-21T01:21:07.121Z,3.34
2018-03-21T01:23:35.426Z,3.32
2018-03-21T01:26:04.504Z,3.31
2018-03-21T01:28:32.848Z,3.29
2018-03-21T01:31:01.154Z,3.29
2018-03-21T01:33:29.484Z,3.26
2018-03-21T01:35:58.576Z,3.27
2018-03-21T01:38:27.650Z,3.26
2018-03-21T01:40:55.991Z,3.24
2018-03-21T01:43:24.307Z,3.21
2018-03-21T01:45:52.613Z,3.21
2018-03-21T01:48:21.697Z,3.21
2018-03-21T01:50:50.010Z,3.23
2018-03-21T01:53:18.317Z,3.20
2018-03-21T01:55:46.661Z,3.25
2018-03-21T01:58:15.800Z,3.28
2018-03-21T02:00:44.103Z,3.29
2018-03-21T02:03:12.413Z,3.29
2018-03-21T02:05:40.717Z,3.30
2018-03-21T02:08:09.845Z,3.28
2018-03-21T02:10:38.158Z,3.26
2018-03-21T02:13:06.478Z,3.27
2018-03-21T02:15:35.560Z,3.31
2018-03-21T02:18:04.676Z,3.32
2018-03-21T02:20:33.759Z,3.30
2018-03-21T02:23:02.066Z,3.28
2018-03-21T02:25:31.145Z,3.26
2018-03-21T02:28:00.225Z,3.24
2018-03-21T02:30:28.536Z,3.23
2018-03-21T02:32:57.626Z,3.26
2018-03-21T02:35:26.030Z,3.30
2018-03-21T02:37:55.117Z,3.29
2018-03-21T02:40:24.192Z,3.28
2018-03-21T02:42:52.534Z,3.23
2018-03-21T02:45:20.845Z,3.22
2018-03-21T02:47:49.154Z,3.18
2018-03-21T02:50:17.474Z,3.14
2018-03-21T02:52:45.774Z,3.12
2018-03-21T02:55:14.097Z,3.09
2018-03-21T02:57:42.406Z,3.04
2018-03-21T03:00:10.744Z,3.06
2018-03-21T03:02:39.816Z,3.08
2018-03-21T03:05:08.126Z,3.11
2018-03-21T03:07:36.449Z,3.13
2018-03-21T03:10:05.542Z,3.13
2018-03-21T03:12:34.612Z,3.14
2018-03-21T03:15:02.932Z,3.16
2018-03-21T03:17:32.023Z,3.16
2018-03-21T03:20:01.223Z,3.13
2018-03-21T03:22:30.293Z,3.11
2018-03-21T03:24:58.623Z,3.09
2018-03-21T03:27:26.937Z,3.08
2018-03-21T03:29:55.237Z,3.09
2018-03-21T03:32:23.527Z,3.06
2018-03-21T03:34:51.915Z,3.06
2018-03-21T03:37:20.216Z,3.02
2018-03-21T03:39:49.337Z,2.98
2018-03-21T03:42:17.637Z,3.00
2018-03-21T03:44:45.945Z,3.00
2018-03-21T03:47:14.253Z,3.02
2018-03-21T03:49:43.327Z,3.00
2018-03-21T03:52:11.649Z,3.07
2018-03-21T03:54:39.975Z,3.03
2018-03-21T03:57:08.311Z,3.00
2018-03-21T03:59:37.385Z,3.06
2018-03-21T04:02:05.697Z,3.00
2018-03-21T04:04:34.007Z,2.93
2018-03-21T04:07:02.374Z,2.85
2018-03-21T04:09:30.721Z,2.81
2018-03-21T04:11:59.032Z,2.79
2018-03-21T04:14:27.480Z,2.79
2018-03-21T04:16:55.805Z,2.80
2018-03-21T04:19:24.847Z,2.71
2018-03-21T04:21:53.169Z,2.71
2018-03-21T04:24:22.255Z,2.73
2018-03-21T04:26:51.337Z,2.72
2018-03-21T04:29:20.442Z,2.77
2018-03-21T04:31:48.744Z,2.82
2018-03-21T04:34:17.818Z,2.77
2018-03-21T04:36:46.119Z,2.72
2018-03-21T04:39:15.236Z,2.67
2018-03-21T04:41:43.575Z,2.65
2018-03-21T04:44:11.891Z,2.63
2018-03-21T04:46:40.959Z,2.63
2018-03-21T04:49:09.817Z,2.54
2018-03-21T04:51:38.107Z,2.50
2018-03-21T04:54:06.426Z,2.48
2018-03-21T04:56:34.719Z,2.54
2018-03-21T04:59:03.802Z,2.55
2018-03-21T05:01:32.097Z,2.58
2018-03-21T05:04:00.420Z,2.58
2018-03-21T05:06:28.733Z,2.57
2018-03-21T05:08:57.068Z,2.58
2018-03-21T05:11:25.679Z,2.57
2018-03-21T05:13:54.069Z,2.55
2018-03-21T05:16:22.380Z,2.56
2018-03-21T05:18:50.717Z,2.54
2018-03-21T05:21:19.050Z,2.53
2018-03-21T05:23:47.451Z,2.52
2018-03-21T05:26:15.775Z,2.48
2018-03-21T05:28:44.095Z,2.48
2018-03-21T05:31:12.407Z,2.49
2018-03-21T05:33:41.484Z,2.51
2018-03-21T05:36:09.793Z,2.50
2018-03-21T05:38:38.891Z,2.47
2018-03-21T05:41:07.971Z,2.48
2018-03-21T05:43:36.285Z,2.57
2018-03-21T05:46:04.608Z,2.57
2018-03-21T05:48:32.924Z,2.55
2018-03-21T05:51:01.263Z,2.60
2018-03-21T05:53:29.585Z,2.59
2018-03-21T05:55:58.666Z,2.57
2018-03-21T05:58:27.015Z,2.58
2018-03-21T06:00:55.369Z,2.58
2018-03-21T06:03:23.695Z,2.57
2018-03-21T06:05:52.025Z,2.61
2018-03-21T06:08:20.358Z,2.70
2018-03-21T06:10:48.676Z,2.86
2018-03-21T06:13:17.771Z,3.01
2018-03-21T06:15:46.136Z,3.10
2018-03-21T06:18:14.436Z,3.16
2018-03-21T06:20:42.737Z,3.27
2018-03-21T06:23:11.823Z,3.33
2018-03-21T06:25:40.135Z,3.43
2018-03-21T06:28:08.453Z,3.53
2018-03-21T06:30:37.579Z,3.63
2018-03-21T06:33:07.500Z,3.74
2018-03-21T06:35:35.803Z,3.82
2018-03-21T06:38:04.884Z,3.90
2018-03-21T06:40:33.180Z,3.99
2018-03-21T06:43:02.256Z,4.13
2018-03-21T06:45:30.561Z,4.23
2018-03-21T06:47:59.617Z,4.33
2018-03-21T06:50:27.975Z,4.40
2018-03-21T06:52:56.363Z,4.49
2018-03-21T06:55:24.679Z,4.60
2018-03-21T06:57:53.003Z,4.71
2018-03-21T07:00:21.512Z,4.79
2018-03-21T07:02:49.829Z,4.90
2018-03-21T07:05:18.152Z,5.00
2018-03-21T07:07:47.224Z,5.10
2018-03-21T07:10:15.529Z,5.24
2018-03-21T07:12:44.705Z,5.37
2018-03-21T07:15:30.736Z,5.53
2018-03-21T07:17:59.041Z,5.68
2018-03-21T07:20:27.337Z,5.78
2018-03-21T07:22:55.655Z,5.83
2018-03-21T07:25:24.710Z,5.87
2018-03-21T07:27:53.001Z,6.00
2018-03-21T07:30:21.335Z,6.01
2018-03-21T07:32:49.655Z,6.19
2018-03-21T07:35:17.979Z,6.31
2018-03-21T07:37:46.267Z,6.33
2018-03-21T07:40:15.343Z,6.25
2018-03-21T07:42:43.664Z,6.49
2018-03-21T07:45:12.829Z,6.66
2018-03-21T07:47:41.134Z,6.80
2018-03-21T07:50:09.463Z,6.91
2018-03-21T07:52:37.773Z,7.02
2018-03-21T07:55:06.082Z,7.11
2018-03-21T07:57:35.147Z,7.24
2018-03-21T08:00:03.438Z,7.35
2018-03-21T08:02:31.756Z,7.56
2018-03-21T08:05:00.057Z,7.77
2018-03-21T08:07:28.355Z,8.02
2018-03-21T08:09:56.694Z,8.26
2018-03-21T08:12:25.771Z,8.44
2018-03-21T08:14:54.405Z,8.38
2018-03-21T08:17:22.720Z,8.31
2018-03-21T08:19:51.052Z,8.57
2018-03-21T08:22:20.131Z,8.76
2018-03-21T08:24:49.204Z,8.95
2018-03-21T08:27:17.555Z,9.23
2018-03-21T08:29:45.917Z,9.53
2018-03-21T08:32:14.987Z,9.97
2018-03-21T08:34:43.291Z,10.24
2018-03-21T08:37:12.416Z,10.24
2018-03-21T08:39:40.728Z,10.27
2018-03-21T08:42:09.069Z,10.45
2018-03-21T08:44:37.363Z,10.55
2018-03-21T08:47:05.693Z,10.71
2018-03-21T08:49:34.001Z,10.89
2018-03-21T08:52:03.067Z,11.04
2018-03-21T08:54:31.371Z,11.24
2018-03-21T08:57:00.476Z,11.82
2018-03-21T08:59:29.560Z,12.48
2018-03-21T09:01:57.907Z,13.10
2018-03-21T09:04:26.206Z,13.79
2018-03-21T09:06:54.537Z,14.30
2018-03-21T09:09:23.605Z,14.47
2018-03-21T09:11:51.931Z,14.28
2018-03-21T09:14:20.237Z,13.99
2018-03-21T09:16:48.597Z,13.63
2018-03-21T09:19:16.932Z,13.16
2018-03-21T09:21:45.242Z,12.84
2018-03-21T09:24:13.575Z,12.61
2018-03-21T09:26:41.907Z,12.36
2018-03-21T09:29:11.020Z,12.32
2018-03-21T09:31:39.341Z,12.48
2018-03-21T09:34:07.692Z,12.70
2018-03-21T09:36:36.022Z,12.96
2018-03-21T09:39:04.382Z,13.30
2018-03-21T09:41:32.662Z,13.80
2018-03-21T09:44:01.013Z,14.37
2018-03-21T09:46:29.422Z,14.90
2018-03-21T09:48:57.687Z,15.07
2018-03-21T09:51:25.983Z,14.91
2018-03-21T09:53:54.294Z,14.52
2018-03-21T09:56:22.620Z,13.99
2018-03-21T09:58:50.930Z,13.52
2018-03-21T10:01:19.279Z,13.02
2018-03-21T10:03:48.357Z,12.61
2018-03-21T10:06:16.719Z,12.25
2018-03-21T10:08:45.022Z,11.90
2018-03-21T10:11:14.158Z,11.57
2018-03-21T10:13:42.459Z,11.39
2018-03-21T10:16:10.824Z,11.63
2018-03-21T10:18:39.235Z,12.10
2018-03-21T10:21:07.535Z,12.53
2018-03-21T10:23:35.853Z,13.01
2018-03-21T10:26:04.934Z,13.19
2018-03-21T10:28:33.269Z,13.11
2018-03-21T10:31:01.597Z,13.10
2018-03-21T10:33:29.949Z,13.15
2018-03-21T10:35:59.015Z,13.33
2018-03-21T10:38:27.329Z,13.73
2018-03-21T10:40:55.644Z,14.13
2018-03-21T10:43:24.757Z,14.41
2018-03-21T10:45:53.816Z,14.73
2018-03-21T10:48:22.129Z,14.87
2018-03-21T10:50:50.431Z,14.70
2018-03-21T10:53:18.763Z,14.54
2018-03-21T10:55:47.108Z,14.42
2018-03-21T10:58:15.404Z,14.21
2018-03-21T11:00:43.716Z,13.91
2018-03-21T11:03:12.075Z,13.41
2018-03-21T11:05:40.399Z,12.82
2018-03-21T11:08:09.474Z,12.39
2018-03-21T11:10:37.764Z,12.36
2018-03-21T11:13:06.080Z,12.74
2018-03-21T11:15:35.183Z,13.13
2018-03-21T11:18:04.266Z,13.45
2018-03-21T11:20:33.368Z,13.93
2018-03-21T11:23:02.438Z,14.38
2018-03-21T11:25:30.793Z,14.92
2018-03-21T11:27:59.123Z,15.47
2018-03-21T11:30:28.204Z,15.67
2018-03-21T11:32:56.518Z,15.82
2018-03-21T11:35:25.582Z,16.21
2018-03-21T11:37:53.898Z,16.66
2018-03-21T11:40:23.075Z,16.79
2018-03-21T11:42:51.401Z,16.59
2018-03-21T11:45:20.308Z,16.06
2018-03-21T11:47:48.643Z,15.56
2018-03-21T11:50:16.984Z,15.04
2018-03-21T11:52:46.159Z,14.91
2018-03-21T11:55:14.602Z,14.88
2018-03-21T11:57:42.935Z,14.97
2018-03-21T12:00:11.288Z,14.99
2018-03-21T12:02:40.380Z,15.51
2018-03-21T12:05:08.681Z,16.91
2018-03-21T12:07:37.796Z,17.55
2018-03-21T12:10:06.094Z,18.51
2018-03-21T12:12:34.425Z,18.70
2018-03-21T12:15:02.753Z,18.39
2018-03-21T12:17:31.072Z,18.23
2018-03-21T12:19:59.392Z,17.78
2018-03-21T12:22:27.724Z,17.26
2018-03-21T12:24:56.020Z,17.84
2018-03-21T12:27:24.366Z,18.15
2018-03-21T12:29:52.756Z,19.13
2018-03-21T12:32:21.231Z,18.38
2018-03-21T12:34:49.550Z,18.05
2018-03-21T12:37:17.872Z,17.58
2018-03-21T12:39:47.924Z,17.36
2018-03-21T12:42:16.249Z,16.96
2018-03-21T12:44:44.603Z,16.72
2018-03-21T12:47:12.924Z,16.41
2018-03-21T12:49:42.078Z,16.08
2018-03-21T12:52:10.401Z,16.02
2018-03-21T12:54:38.724Z,16.20
2018-03-21T12:57:07.058Z,16.45
2018-03-21T12:59:35.396Z,16.61
2018-03-21T13:02:03.962Z,16.67
2018-03-21T13:04:33.073Z,16.70
2018-03-21T13:07:01.433Z,16.75
2018-03-21T13:09:30.507Z,16.69
2018-03-21T13:11:58.828Z,16.39
2018-03-21T13:14:27.922Z,16.88
2018-03-21T13:16:57.484Z,16.83
2018-03-21T13:19:25.820Z,16.41
2018-03-21T13:21:54.136Z,16.07
2018-03-21T13:24:22.500Z,15.88
2018-03-21T13:26:50.856Z,16.19
2018-03-21T13:29:19.957Z,16.54
2018-03-21T13:31:49.037Z,16.88
2018-03-21T13:34:17.358Z,17.24
2018-03-21T13:36:45.717Z,17.94
2018-03-21T13:39:14.032Z,18.02
2018-03-21T13:41:42.367Z,17.94
2018-03-21T13:44:11.492Z,19.44
2018-03-21T13:46:39.867Z,20.98
2018-03-21T13:49:08.939Z,21.27
2018-03-21T13:51:37.288Z,20.61
2018-03-21T13:54:05.630Z,19.58
2018-03-21T13:56:33.963Z,21.96
2018-03-21T13:59:02.440Z,20.99
2018-03-21T14:01:30.736Z,22.12
2018-03-21T14:03:59.036Z,20.90
2018-03-21T14:06:28.194Z,20.56
2018-03-21T14:08:56.497Z,21.13
2018-03-21T14:11:24.794Z,22.99
2018-03-21T14:13:53.106Z,24.78
2018-03-21T14:16:22.450Z,26.13
2018-03-21T14:18:50.738Z,23.76
2018-03-21T14:21:19.079Z,21.77
2018-03-21T14:23:48.156Z,22.83
2018-03-21T14:26:16.476Z,20.73
2018-03-21T14:28:45.595Z,20.43
2018-03-21T14:31:13.911Z,19.78
2018-03-21T14:33:42.568Z,18.28
2018-03-21T14:36:11.812Z,17.56
2018-03-21T14:38:40.214Z,17.87
2018-03-21T14:41:08.528Z,17.40
2018-03-21T14:43:36.855Z,17.13
2018-03-21T14:46:05.196Z,17.69
2018-03-21T14:48:33.512Z,17.82
2018-03-21T14:51:01.842Z,17.06
2018-03-21T14:53:30.916Z,18.78
2018-03-21T14:55:59.312Z,18.03
2018-03-21T14:58:28.425Z,17.21
2018-03-21T15:00:57.504Z,19.22
2018-03-21T15:03:25.830Z,19.97
2018-03-21T15:05:54.224Z,18.57
2018-03-21T15:08:22.536Z,18.26
2018-03-21T15:10:50.879Z,17.98
2018-03-21T15:13:19.231Z,18.57
2018-03-21T15:15:48.377Z,19.91
2018-03-21T15:18:16.712Z,21.28
2018-03-21T15:20:45.846Z,22.74
2018-03-21T15:23:14.252Z,23.53
2018-03-21T15:25:42.586Z,24.22
2018-03-21T15:28:10.925Z,24.88
2018-03-21T15:30:39.322Z,24.20
2018-03-21T15:33:07.643Z,24.77
2018-03-21T15:35:35.967Z,25.38
2018-03-21T15:38:05.010Z,25.81
2018-03-21T15:40:34.217Z,24.16
2018-03-21T15:43:02.541Z,23.58
2018-03-21T15:45:30.867Z,22.32
2018-03-21T15:47:59.992Z,21.25
2018-03-21T15:50:28.304Z,21.49
2018-03-21T15:52:57.093Z,20.41
2018-03-21T15:55:25.418Z,20.27
2018-03-21T15:57:53.925Z,20.43
2018-03-21T16:00:22.257Z,19.90
2018-03-21T16:02:50.577Z,19.58
2018-03-21T16:05:19.716Z,19.54
2018-03-21T16:07:48.107Z,19.04
2018-03-21T16:10:16.454Z,19.21
2018-03-21T16:12:45.568Z,19.77
2018-03-21T16:15:13.874Z,19.95
2018-03-21T16:17:42.192Z,20.22
2018-03-21T16:20:10.530Z,20.36
2018-03-21T16:22:38.851Z,20.56
2018-03-21T16:25:07.178Z,20.38
2018-03-21T16:27:35.827Z,19.68
2018-03-21T16:30:04.154Z,18.52
2018-03-21T16:32:32.471Z,17.60
2018-03-21T16:35:01.540Z,17.20
2018-03-21T16:37:29.856Z,16.78
2018-03-21T16:39:59.423Z,16.24
2018-03-21T16:42:27.758Z,16.65
2018-03-21T16:44:56.070Z,16.88
2018-03-21T16:47:25.157Z,16.51
2018-03-21T16:49:54.406Z,16.60
2018-03-21T16:52:22.712Z,16.37
2018-03-21T16:54:51.041Z,15.82
2018-03-21T16:57:20.173Z,15.12
2018-03-21T16:59:49.394Z,14.77
2018-03-21T17:02:17.737Z,14.04
2018-03-21T17:04:46.814Z,13.30
2018-03-21T17:07:15.913Z,12.83
2018-03-21T17:09:44.221Z,12.57
2018-03-21T17:12:12.637Z,12.30
2018-03-21T17:14:40.952Z,11.89
2018-03-21T17:17:09.283Z,11.51
2018-03-21T17:19:37.691Z,11.14
2018-03-21T17:22:06.012Z,10.68
2018-03-21T17:24:35.142Z,10.27
2018-03-21T17:27:03.484Z,9.87
2018-03-21T17:29:31.881Z,9.55
2018-03-21T17:32:00.227Z,9.27
2018-03-21T17:34:28.592Z,8.99
2018-03-21T17:36:56.986Z,8.81
2018-03-21T17:39:25.342Z,8.59
2018-03-21T17:41:53.725Z,8.42
2018-03-21T17:44:22.071Z,8.25
2018-03-21T17:46:50.363Z,8.10
2018-03-21T17:49:19.457Z,7.89
2018-03-21T17:51:48.679Z,7.64
2018-03-21T17:54:17.029Z,7.43
2018-03-21T17:56:45.356Z,7.26
2018-03-21T17:59:13.699Z,7.10
2018-03-21T18:01:42.027Z,6.97
2018-03-21T18:04:10.406Z,6.83
2018-03-21T18:06:38.750Z,6.70
2018-03-21T18:09:07.082Z,6.67
2018-03-21T18:11:35.465Z,6.66
2018-03-21T18:14:03.798Z,6.64
2018-03-21T18:16:32.129Z,6.58
2018-03-21T18:19:00.465Z,6.49
2018-03-21T18:21:28.830Z,6.40
2018-03-21T18:23:57.181Z,6.33
2018-03-21T18:26:25.517Z,6.26
2018-03-21T18:28:53.866Z,6.20
2018-03-21T18:31:22.183Z,6.18
2018-03-21T18:33:50.488Z,6.15
2018-03-21T18:36:19.531Z,6.15
2018-03-21T18:38:47.887Z,6.14
2018-03-21T18:41:16.211Z,6.09
2018-03-21T18:43:44.516Z,6.05
2018-03-21T18:46:13.585Z,6.04
2018-03-21T18:48:41.917Z,6.00
2018-03-21T18:51:11.046Z,5.98
2018-03-21T18:53:39.357Z,5.92
2018-03-21T18:56:07.682Z,5.88
2018-03-21T18:58:36.000Z,5.83
2018-03-21T19:01:04.397Z,5.82
2018-03-21T19:03:32.725Z,5.81
2018-03-21T19:06:01.819Z,5.86
2018-03-21T19:08:30.913Z,5.87
2018-03-21T19:10:59.982Z,5.83
2018-03-21T19:13:28.291Z,5.83
2018-03-21T19:15:57.427Z,5.79
2018-03-21T19:18:25.748Z,5.77
2018-03-21T19:20:54.402Z,5.70
2018-03-21T19:23:22.767Z,5.65
2018-03-21T19:25:51.096Z,5.62
2018-03-21T19:28:19.445Z,5.62
2018-03-21T19:30:47.782Z,5.63
2018-03-21T19:33:16.102Z,5.63
2018-03-21T19:35:44.471Z,5.67
2018-03-21T19:38:13.633Z,5.67
2018-03-21T19:40:41.937Z,5.69
2018-03-21T19:43:11.029Z,5.73
2018-03-21T19:45:39.355Z,5.77
2018-03-21T19:48:07.685Z,5.80
2018-03-21T19:50:35.979Z,5.84
2018-03-21T19:53:04.301Z,5.83
2018-03-21T19:55:32.621Z,5.82
2018-03-21T19:58:00.962Z,5.88
2018-03-21T20:00:29.312Z,5.89
2018-03-21T20:02:57.694Z,5.89
2018-03-21T20:05:26.784Z,5.91
2018-03-21T20:07:55.158Z,5.97
2018-03-21T20:10:23.518Z,6.07
2018-03-21T20:12:51.856Z,6.13
2018-03-21T20:15:20.979Z,6.16
2018-03-21T20:17:49.307Z,6.20
2018-03-21T20:20:17.650Z,6.20
2018-03-21T20:22:45.959Z,6.24
2018-03-21T20:25:14.293Z,6.29
2018-03-21T20:27:42.703Z,6.32
2018-03-21T20:30:11.017Z,6.33
2018-03-21T20:32:39.974Z,6.35
2018-03-21T20:35:08.360Z,6.38
2018-03-21T20:37:37.168Z,6.42
2018-03-21T20:40:05.486Z,6.41
2018-03-21T20:42:33.784Z,6.43
2018-03-21T20:45:02.887Z,6.46
2018-03-21T20:47:31.942Z,6.47
2018-03-21T20:50:00.248Z,6.51
2018-03-21T20:52:28.587Z,6.54
2018-03-21T20:54:56.939Z,6.59
2018-03-21T20:57:26.013Z,6.64
2018-03-21T20:59:54.325Z,6.68
2018-03-21T21:02:23.445Z,6.72
2018-03-21T21:04:51.753Z,6.76
2018-03-21T21:07:20.115Z,6.82
2018-03-21T21:09:48.479Z,6.84
2018-03-21T21:12:16.864Z,6.86
2018-03-21T21:14:45.975Z,6.89
2018-03-21T21:17:14.281Z,6.92
2018-03-21T21:19:42.606Z,6.97
2018-03-21T21:22:11.746Z,6.99
2018-03-21T21:24:40.853Z,7.02
2018-03-21T21:27:09.163Z,7.07
2018-03-21T21:29:37.477Z,7.11
2018-03-21T21:32:05.817Z,7.14
2018-03-21T21:34:34.137Z,7.17
2018-03-21T21:37:02.446Z,7.19
2018-03-21T21:39:30.779Z,7.21
2018-03-21T21:41:59.120Z,7.21
2018-03-21T21:44:27.437Z,7.24
2018-03-21T21:46:55.777Z,7.27
2018-03-21T21:49:24.071Z,7.29
2018-03-21T21:51:52.381Z,7.31
2018-03-21T21:54:20.686Z,7.34
2018-03-21T21:56:49.763Z,7.37
2018-03-21T21:59:18.122Z,7.41
2018-03-21T22:01:46.424Z,7.42
2018-03-21T22:04:14.753Z,7.43
2018-03-21T22:06:43.846Z,7.43
2018-03-21T22:09:12.945Z,7.45
2018-03-21T22:11:42.043Z,7.46
2018-03-21T22:14:10.403Z,7.44
2018-03-21T22:16:38.774Z,7.43
2018-03-21T22:19:07.086Z,7.40
2018-03-21T22:21:36.192Z,7.42
2018-03-21T22:24:05.260Z,7.45
2018-03-21T22:26:33.578Z,7.47
2018-03-21T22:29:02.690Z,7.48
2018-03-21T22:31:31.025Z,7.47
2018-03-21T22:33:59.367Z,7.48
2018-03-21T22:36:27.679Z,7.46
2018-03-21T22:38:56.001Z,7.41
2018-03-21T22:41:25.099Z,7.35
2018-03-21T22:43:54.226Z,7.31
2018-03-21T22:46:22.534Z,7.24
2018-03-21T22:48:51.611Z,7.21
2018-03-21T22:51:19.919Z,7.22
2018-03-21T22:53:48.234Z,7.25
2018-03-21T22:56:17.316Z,7.30
2018-03-21T22:58:45.642Z,7.35
2018-03-21T23:01:13.950Z,7.43
2018-03-21T23:03:42.273Z,7.44
2018-03-21T23:06:10.617Z,7.49
2018-03-21T23:08:38.970Z,7.55
2018-03-21T23:11:08.032Z,7.61
2018-03-21T23:13:37.615Z,7.63
2018-03-21T23:16:05.942Z,7.66
2018-03-21T23:18:35.116Z,7.65
2018-03-21T23:21:03.433Z,7.62
2018-03-21T23:23:32.546Z,7.57
2018-03-21T23:26:00.923Z,7.52
2018-03-21T23:28:29.993Z,7.47
2018-03-21T23:30:59.207Z,7.44
2018-03-21T23:33:28.324Z,7.42
2018-03-21T23:35:56.665Z,7.39
2018-03-21T23:38:24.999Z,7.32
2018-03-21T23:40:53.317Z,7.28
2018-03-21T23:43:21.622Z,7.24
2018-03-21T23:45:50.054Z,7.21
2018-03-21T23:48:18.346Z,7.18
2018-03-21T23:50:46.661Z,7.13
2018-03-21T23:53:15.061Z,7.09
2018-03-21T23:55:43.399Z,7.08
2018-03-21T23:58:11.747Z,7.07
